Time;durP1;ratioP1;P1;durP2;ratioP2;P2;SDS_P1;SDS_P2;PMS_P1;PMS_P2;Temp;Humidity;BMP_temperature;BMP_pressure;BME280_temperature;BME280_humidity;BME280_pressure;Samples;Min_cycle;Max_cycle;Signal;HPM_P1;HPM_P2
2022/07/06 00:01:07;;;;;;;4.32;3.92;;;;;;;23.09;53.64;93733.94;6128166;23;20021;-90
2022/07/06 00:03:32;;;;;;;3.55;3.22;;;;;;;23.10;53.71;93731.94;6129049;23;20021;-91
2022/07/06 00:05:58;;;;;;;4.20;3.70;;;;;;;23.13;53.41;93726.09;6129023;23;20013;-91
2022/07/06 00:08:24;;;;;;;3.70;3.25;;;;;;;23.14;53.41;93721.31;6128198;23;20029;-91
2022/07/06 00:10:50;;;;;;;4.68;3.60;;;;;;;23.12;53.39;93724.59;6129085;23;20021;-91
2022/07/06 00:13:15;;;;;;;3.55;3.25;;;;;;;23.08;53.66;93726.94;6127917;23;20067;-91
2022/07/06 00:15:43;;;;;;;3.50;3.20;;;;;;;23.09;53.61;93733.19;6129374;23;20016;-91
2022/07/06 00:18:09;;;;;;;3.20;2.90;;;;;;;23.15;53.37;93739.34;6128763;23;20013;-91
2022/07/06 00:20:37;;;;;;;3.72;3.38;;;;;;;23.10;53.33;93740.19;6128022;23;20032;-91
2022/07/06 00:23:03;;;;;;;4.00;3.35;;;;;;;23.09;53.57;93733.94;6128083;23;20017;-91
2022/07/06 00:25:28;;;;;;;3.60;3.30;;;;;;;23.11;53.57;93734.16;6128646;23;20433;-91
2022/07/06 00:27:53;;;;;;;3.70;3.30;;;;;;;23.11;53.68;93742.44;6128682;23;20021;-93
2022/07/06 00:30:19;;;;;;;3.75;3.13;;;;;;;23.07;53.47;93736.50;6127927;23;20416;-92
2022/07/06 00:32:44;;;;;;;3.50;3.20;;;;;;;23.04;53.80;93732.03;6129433;23;20111;-91
2022/07/06 00:35:10;;;;;;;3.75;3.45;;;;;;;23.09;53.61;93724.94;6128046;23;20032;-91
2022/07/06 00:37:35;;;;;;;3.35;3.05;;;;;;;23.09;53.59;93730.44;6129132;23;20460;-91
2022/07/06 00:40:01;;;;;;;3.33;3.03;;;;;;;23.06;53.63;93723.97;6128704;23;20044;-93
2022/07/06 00:42:26;;;;;;;3.55;3.00;;;;;;;23.11;53.48;93725.13;6127907;23;20076;-91
2022/07/06 00:44:52;;;;;;;3.17;2.85;;;;;;;23.11;53.45;93722.38;6128585;23;20072;-91
2022/07/06 00:47:17;;;;;;;3.00;2.70;;;;;;;23.11;53.19;93714.84;6127635;23;20032;-92
2022/07/06 00:52:28;;;;;;;3.15;2.90;;;;;;;23.11;53.57;93714.84;6177297;23;20052;-91
2022/07/06 00:54:53;;;;;;;3.00;2.70;;;;;;;23.09;53.40;93714.63;6127774;23;20024;-91
2022/07/06 00:57:19;;;;;;;3.83;2.85;;;;;;;23.09;53.61;93711.88;6128459;23;20017;-91
2022/07/06 00:59:44;;;;;;;3.58;3.25;;;;;;;23.10;53.48;93702.34;6130880;23;20020;-93
2022/07/06 01:02:10;;;;;;;3.25;2.95;;;;;;;23.07;53.44;93703.41;6098540;23;20025;-91
2022/07/06 01:04:35;;;;;;;3.13;2.83;;;;;;;23.05;53.35;93711.47;6099673;23;20025;-91
2022/07/06 01:07:01;;;;;;;3.38;3.08;;;;;;;23.03;53.80;93702.25;6099962;23;20021;-91
2022/07/06 01:09:26;;;;;;;3.45;3.03;;;;;;;23.08;53.64;93715.91;6099049;23;20017;-91
2022/07/06 01:11:52;;;;;;;3.47;3.15;;;;;;;23.11;53.50;93703.06;6099334;23;20521;-91
2022/07/06 01:14:17;;;;;;;3.67;3.10;;;;;;;23.10;53.33;93710.59;6098921;23;20476;-91
2022/07/06 01:16:43;;;;;;;2.95;2.63;;;;;;;23.08;53.69;93713.16;6098761;23;20018;-92
2022/07/06 01:19:08;;;;;;;3.17;2.88;;;;;;;23.11;53.36;93706.56;6099071;23;20480;-91
2022/07/06 01:21:37;;;;;;;3.10;2.78;;;;;;;23.07;53.39;93708.91;6123289;23;20017;-91
2022/07/06 01:24:03;;;;;;;3.78;3.00;;;;;;;23.03;53.62;93707.75;6098221;23;20465;-91
2022/07/06 01:26:28;;;;;;;3.33;2.90;;;;;;;23.09;53.43;93711.88;6099148;23;20014;-91
2022/07/06 01:28:54;;;;;;;3.30;2.95;;;;;;;23.06;53.63;93707.44;6099266;23;20033;-91
2022/07/06 01:31:22;;;;;;;2.95;2.70;;;;;;;23.04;53.58;93709.25;6098220;23;20029;-91
2022/07/06 01:33:51;;;;;;;3.13;2.83;;;;;;;23.02;53.52;93706.28;6123066;23;20364;-91
2022/07/06 01:36:16;;;;;;;2.88;2.60;;;;;;;23.08;53.48;93706.91;6130042;23;20015;-91
2022/07/06 01:38:52;;;;;;;2.72;2.53;;;;;;;23.04;53.72;93706.47;6129921;23;20562;-91
2022/07/06 01:41:18;;;;;;;3.28;2.80;;;;;;;23.05;53.65;93714.22;6132439;23;20014;-91
2022/07/06 01:43:43;;;;;;;2.88;2.58;;;;;;;23.08;53.33;93713.16;6135544;23;20510;-91
2022/07/06 01:46:09;;;;;;;3.10;2.72;;;;;;;23.07;53.54;93717.19;6134932;23;20514;-91
2022/07/06 01:48:34;;;;;;;3.10;2.58;;;;;;;23.05;53.70;93724.50;6134820;23;20024;-91
2022/07/06 01:51:00;;;;;;;3.95;2.65;;;;;;;23.05;53.80;93719.00;6134822;23;20016;-91
2022/07/06 01:53:25;;;;;;;3.78;2.97;;;;;;;23.00;53.67;93712.31;6134055;23;20411;-92
2022/07/06 01:55:51;;;;;;;2.60;2.38;;;;;;;23.05;53.72;93716.97;6158822;23;20021;-91
2022/07/06 01:58:16;;;;;;;2.67;2.45;;;;;;;23.08;53.24;93713.16;6134652;23;20017;-90
2022/07/06 02:00:42;;;;;;;2.25;2.05;;;;;;;23.02;53.44;93711.78;6158785;23;20367;-92
2022/07/06 02:03:07;;;;;;;2.63;2.42;;;;;;;23.01;53.65;93713.81;6134280;23;20385;-91
2022/07/06 02:05:33;;;;;;;3.03;2.60;;;;;;;23.04;53.49;93709.25;6134990;23;20016;-92
2022/07/06 02:07:59;;;;;;;2.40;2.17;;;;;;;22.99;53.64;93705.31;6160069;23;20016;-92
2022/07/06 02:10:25;;;;;;;2.42;2.17;;;;;;;23.01;53.51;93704.78;6133690;23;20261;-91
2022/07/06 02:12:50;;;;;;;3.13;2.50;;;;;;;22.99;53.60;93707.34;6135646;23;20562;-91
2022/07/06 02:15:16;;;;;;;3.25;2.33;;;;;;;23.04;53.52;93709.97;6158280;23;20013;-91
2022/07/06 02:17:44;;;;;;;2.67;2.45;;;;;;;23.01;53.58;93707.53;6122942;23;20061;-91
2022/07/06 02:20:09;;;;;;;2.83;2.63;;;;;;;23.02;53.51;93712.53;6097671;23;20075;-91
2022/07/06 02:22:35;;;;;;;2.97;2.58;;;;;;;23.03;53.56;93707.75;6074535;23;20029;-91
2022/07/06 02:25:00;;;;;;;2.50;2.30;;;;;;;22.99;53.62;93704.56;6075099;23;20028;-91
2022/07/06 02:27:26;;;;;;;2.75;2.30;;;;;;;23.00;53.39;93709.56;6072673;23;20026;-91
2022/07/06 02:29:51;;;;;;;2.80;2.28;;;;;;;23.01;53.57;93713.06;6074509;23;20053;-91
2022/07/06 02:32:17;;;;;;;2.42;2.22;;;;;;;22.99;53.47;93716.34;6074666;23;20037;-92
2022/07/06 02:34:42;;;;;;;2.50;2.30;;;;;;;23.01;53.31;93713.06;6074780;23;20465;-91
2022/07/06 02:37:08;;;;;;;2.53;2.30;;;;;;;22.98;53.57;93730.66;6073714;23;20043;-92
2022/07/06 02:39:34;;;;;;;2.78;2.33;;;;;;;23.02;53.48;93728.34;6122920;23;20021;-91
2022/07/06 02:41:59;;;;;;;2.30;2.10;;;;;;;22.98;53.60;93720.38;6074394;23;20025;-90
2022/07/06 02:44:25;;;;;;;2.58;2.38;;;;;;;22.99;53.48;93734.91;6073426;23;20026;-91
2022/07/06 02:46:50;;;;;;;3.47;2.08;;;;;;;22.99;53.39;93721.88;6074925;23;20064;-91
2022/07/06 02:49:15;;;;;;;2.35;2.15;;;;;;;22.94;53.55;93725.50;6118097;23;20075;-91
2022/07/06 02:51:44;;;;;;;2.50;2.30;;;;;;;22.97;53.46;93713.38;6133973;23;20025;-92
2022/07/06 02:54:10;;;;;;;2.28;2.05;;;;;;;22.96;53.62;93716.66;6133686;23;20094;-91
2022/07/06 02:56:35;;;;;;;1.80;1.70;;;;;;;22.95;53.59;93715.94;6159313;23;20024;-91
2022/07/06 02:59:00;;;;;;;2.67;2.47;;;;;;;22.97;53.52;93718.16;6134764;23;20028;-91
2022/07/06 03:01:26;;;;;;;2.17;1.98;;;;;;;22.98;53.40;93714.13;6133510;23;20447;-91
2022/07/06 03:03:51;;;;;;;2.35;2.15;;;;;;;22.94;53.62;93714.47;6134475;23;20021;-92
2022/07/06 03:06:17;;;;;;;1.77;1.67;;;;;;;22.95;53.59;93707.66;6158431;23;20052;-91
2022/07/06 03:08:42;;;;;;;2.58;2.35;;;;;;;22.95;53.49;93712.47;6134252;23;20081;-91
2022/07/06 03:11:08;;;;;;;2.10;1.90;;;;;;;22.95;53.75;93715.94;6133896;23;20016;-91
2022/07/06 03:13:34;;;;;;;2.50;2.30;;;;;;;22.92;53.53;93705.25;6134452;23;20020;-91
2022/07/06 03:15:59;;;;;;;2.58;2.30;;;;;;;22.94;53.59;93705.47;6133976;23;20052;-92
2022/07/06 03:18:24;;;;;;;1.95;1.77;;;;;;;22.90;53.70;93706.53;6158539;23;20016;-91
2022/07/06 03:20:50;;;;;;;2.15;1.80;;;;;;;22.96;53.43;93716.66;6158275;23;20021;-92
2022/07/06 03:23:15;;;;;;;2.15;1.80;;;;;;;22.98;53.47;93716.88;6133198;23;20024;-91
2022/07/06 03:25:41;;;;;;;2.53;2.33;;;;;;;22.98;53.52;93709.34;6134861;23;20021;-91
2022/07/06 03:28:06;;;;;;;2.25;2.05;;;;;;;22.99;53.33;93724.63;6133343;23;20024;-91
2022/07/06 03:30:32;;;;;;;2.22;1.95;;;;;;;23.01;53.36;93715.81;6159133;23;20012;-91
2022/07/06 03:32:57;;;;;;;2.00;1.90;;;;;;;22.93;53.55;93710.22;6158903;23;20544;-91
2022/07/06 03:35:23;;;;;;;2.00;1.80;;;;;;;22.94;53.62;93713.72;6157802;23;20028;-91
2022/07/06 03:37:48;;;;;;;2.15;1.95;;;;;;;22.96;53.65;93711.16;6134000;23;20020;-91
2022/07/06 03:40:14;;;;;;;2.53;2.33;;;;;;;22.93;53.30;93709.50;6133177;23;20013;-91
2022/07/06 03:42:40;;;;;;;2.08;1.83;;;;;;;22.99;53.43;93719.09;6158594;23;20122;-92
2022/07/06 03:45:06;;;;;;;1.60;1.50;;;;;;;22.98;53.31;93714.88;6134026;23;20025;-91
2022/07/06 03:47:31;;;;;;;2.38;2.17;;;;;;;22.97;53.39;93721.66;6133673;23;20094;-89
2022/07/06 03:49:57;;;;;;;2.40;2.20;;;;;;;23.01;53.04;93724.09;6158759;23;20094;-89
2022/07/06 03:52:22;;;;;;;1.83;1.70;;;;;;;23.07;53.11;93730.97;6132896;23;20375;-92
2022/07/06 03:54:48;;;;;;;2.30;2.10;;;;;;;23.06;52.98;93723.97;6128562;23;20028;-90
2022/07/06 03:57:13;;;;;;;2.38;2.10;;;;;;;23.07;53.20;93716.44;6103549;23;20013;-91
2022/07/06 03:59:39;;;;;;;2.97;2.30;;;;;;;23.09;53.14;93719.41;6129328;23;20021;-90
2022/07/06 04:02:05;;;;;;;4.65;4.25;;;;;;;22.95;51.33;93724.19;6127800;23;20017;-91
2022/07/06 04:04:30;;;;;;;5.65;5.15;;;;;;;22.88;50.82;93717.34;6153033;23;20356;-90
2022/07/06 04:06:56;;;;;;;5.35;4.90;;;;;;;22.79;49.51;93722.53;6154350;23;20032;-91
2022/07/06 04:09:21;;;;;;;5.63;5.13;;;;;;;22.65;50.14;93724.53;6127711;23;20013;-91
2022/07/06 04:11:47;;;;;;;6.00;5.40;;;;;;;22.47;50.31;93723.41;6127994;23;20028;-91
2022/07/06 04:14:12;;;;;;;6.15;5.55;;;;;;;22.36;50.51;93722.84;6127804;23;20479;-90
2022/07/06 04:16:38;;;;;;;15.52;6.00;;;;;;;22.20;50.90;93730.91;6128718;23;20017;-92
2022/07/06 04:19:03;;;;;;;12.07;6.88;;;;;;;22.17;51.32;93737.47;6128053;23;20032;-92
2022/07/06 04:21:32;;;;;;;14.82;6.93;;;;;;;21.97;51.70;93743.53;6130505;23;20025;-92
2022/07/06 04:23:57;;;;;;;15.38;7.38;;;;;;;21.87;52.14;93743.19;6129671;23;20017;-90
2022/07/06 04:26:25;;;;;;;21.17;7.57;;;;;;;21.77;52.39;93744.88;6122263;23;20471;-86
2022/07/06 04:28:50;;;;;;;71.47;50.72;;;;;;;21.74;52.91;93745.91;6175689;23;20013;-89
2022/07/06 04:31:16;;;;;;;69.28;50.08;;;;;;;21.75;53.05;93739.16;6126903;23;20093;-88
2022/07/06 04:33:42;;;;;;;39.20;20.85;;;;;;;21.68;54.01;93748.00;6176826;23;20020;-89
2022/07/06 04:36:09;;;;;;;21.38;13.45;;;;;;;21.81;53.55;93745.31;6151674;23;20116;-88
2022/07/06 04:38:34;;;;;;;25.05;17.52;;;;;;;21.82;53.82;93738.53;6129034;23;20009;-86
2022/07/06 04:41:00;;;;;;;33.58;17.25;;;;;;;21.79;54.06;93745.09;6149960;23;20028;-84
2022/07/06 04:43:26;;;;;;;25.88;18.10;;;;;;;21.81;54.08;93744.56;6178863;23;20017;-88
2022/07/06 04:45:57;;;;;;;33.08;22.65;;;;;;;21.81;53.32;93742.56;6181964;23;20024;-91
2022/07/06 04:48:23;;;;;;;32.88;18.60;;;;;;;21.78;53.88;93740.09;6134142;23;20025;-92
2022/07/06 04:51:00;;;;;;;28.60;16.00;;;;;;;21.68;54.07;93739.00;6133012;23;20024;-92
2022/07/06 04:53:30;;;;;;;25.40;15.77;;;;;;;21.52;54.69;93738.00;6154011;23;20045;-91
2022/07/06 04:55:55;;;;;;;20.88;11.32;;;;;;;21.66;54.15;93738.78;6163651;23;20092;-92
2022/07/06 04:58:21;;;;;;;34.13;13.02;;;;;;;21.46;54.68;93740.84;6133921;23;20013;-93
2022/07/06 05:00:46;;;;;;;29.42;13.43;;;;;;;21.49;54.84;93733.53;6132723;23;20353;-92
2022/07/06 05:03:13;;;;;;;36.95;16.35;;;;;;;21.49;54.84;93750.06;6134180;23;20087;-94
2022/07/06 05:05:40;;;;;;;51.75;21.48;;;;;;;21.52;55.20;93757.25;6135987;23;20408;-93
2022/07/06 05:08:05;;;;;;;33.00;14.90;;;;;;;21.46;54.48;93764.84;6140763;23;20531;-93
2022/07/06 05:10:32;;;;;;;32.00;14.40;;;;;;;21.58;53.83;93770.94;6135405;23;20024;-93
2022/07/06 05:12:57;;;;;;;22.73;11.60;;;;;;;21.51;54.08;93764.03;6133274;23;20504;-92
2022/07/06 05:15:23;;;;;;;35.35;13.68;;;;;;;21.55;54.16;93775.47;6131630;23;20031;-93
2022/07/06 05:17:49;;;;;;;42.55;17.40;;;;;;;21.53;54.12;93765.00;6131718;23;20017;-94
2022/07/06 05:20:15;;;;;;;22.33;12.75;;;;;;;21.58;53.54;93774.44;6131702;23;20041;-93
2022/07/06 05:22:42;;;;;;;18.67;9.38;;;;;;;21.47;54.32;93774.59;6132252;23;20100;-95
2022/07/06 05:25:08;;;;;;;35.83;14.82;;;;;;;21.43;54.19;93771.41;6132647;23;20024;-93
2022/07/06 05:27:34;;;;;;;24.90;10.77;;;;;;;21.46;54.54;93770.34;6110312;23;20021;-92
2022/07/06 05:30:03;;;;;;;28.10;16.90;;;;;;;21.45;54.81;93788.13;6130018;23;20024;-91
2022/07/06 05:32:47;;;;;;;109.30;48.85;;;;;;;21.54;54.69;93782.97;6104701;23;20083;-93
2022/07/06 05:35:14;;;;;;;28.98;12.95;;;;;;;21.43;55.13;93776.91;6170982;22;20095;-92
2022/07/06 05:38:38;;;;;;;;;;;;;;;;;;;;;
2022/07/06 05:41:04;;;;;;;25.63;10.65;;;;;;;21.50;55.21;93779.03;6139532;22;20242;-90
2022/07/06 05:43:42;;;;;;;40.47;13.48;;;;;;;21.52;55.14;93769.00;6168189;23;20039;-93
2022/07/06 05:46:08;;;;;;;43.17;12.63;;;;;;;21.50;55.10;93776.28;6205536;23;20024;-92
2022/07/06 05:51:18;;;;;;;53.22;24.10;;;;;;;21.50;55.38;93763.28;6156491;23;20083;-92
2022/07/06 05:53:53;;;;;;;135.43;36.92;;;;;;;21.70;55.27;93772.25;6139224;23;20017;-92
2022/07/06 05:56:21;;;;;;;43.63;22.63;;;;;;;21.79;55.57;93777.38;6170992;23;20477;-92
2022/07/06 05:58:47;;;;;;;53.03;30.38;;;;;;;21.71;56.22;93777.22;6166198;23;20047;-91
2022/07/06 06:01:47;;;;;;;36.30;17.95;;;;;;;21.87;55.77;93780.97;6169278;23;20017;-93
2022/07/06 06:04:13;;;;;;;40.95;18.25;;;;;;;21.82;55.81;93777.06;6145503;23;20478;-91
2022/07/06 06:06:38;;;;;;;20.42;13.80;;;;;;;21.86;55.56;93780.25;6170523;23;20012;-90
2022/07/06 06:09:04;;;;;;;28.42;15.45;;;;;;;21.95;55.39;93781.84;6162651;23;20036;-93
2022/07/06 06:11:37;;;;;;;32.08;18.67;;;;;;;22.01;55.15;93771.53;6146360;23;20021;-94
2022/07/06 06:14:03;;;;;;;270.25;213.43;;;;;;;22.04;54.89;93778.00;6222264;23;20031;-92
2022/07/06 06:16:35;;;;;;;142.63;102.50;;;;;;;22.12;54.53;93774.09;6165247;23;20016;-91
2022/07/06 06:19:00;;;;;;;35.90;21.30;;;;;;;22.13;54.30;93777.59;6143525;23;20017;-93
2022/07/06 06:21:26;;;;;;;35.60;17.50;;;;;;;22.21;54.04;93784.72;6140722;23;20021;-93
2022/07/06 06:23:51;;;;;;;26.83;16.73;;;;;;;22.22;54.01;93777.19;6124480;23;20079;-93
2022/07/06 06:26:17;;;;;;;28.45;18.33;;;;;;;22.25;54.04;93783.66;6111364;23;20025;-93
2022/07/06 06:28:43;;;;;;;29.33;17.95;;;;;;;22.30;53.81;93786.28;6110939;23;20021;-91
2022/07/06 06:31:09;;;;;;;34.63;21.15;;;;;;;22.34;53.84;93775.72;6092845;23;20029;-95
2022/07/06 06:34:02;;;;;;;123.38;39.65;;;;;;;22.36;53.92;93777.94;6058981;23;20002;-91
2022/07/06 06:36:27;;;;;;;61.42;27.95;;;;;;;22.41;53.74;93783.34;6080775;23;20025;-93
2022/07/06 06:38:53;;;;;;;81.20;32.40;;;;;;;22.45;53.49;93785.81;6175281;23;20056;-92
2022/07/06 06:41:21;;;;;;;86.25;48.10;;;;;;;22.45;53.41;93783.78;6135309;23;20062;-90
2022/07/06 06:43:49;;;;;;;129.60;60.72;;;;;;;22.50;53.39;93790.47;6125021;23;20020;-93
2022/07/06 06:48:51;;;;;;;148.05;72.95;;;;;;;22.52;53.64;93785.91;6194724;22;20020;-93
2022/07/06 06:51:16;;;;;;;164.88;86.30;;;;;;;22.55;53.38;93793.09;6215024;23;20124;-91
2022/07/06 06:53:42;;;;;;;184.90;91.13;;;;;;;22.58;53.37;93794.81;6154554;23;20020;-90
2022/07/06 06:56:51;;;;;;;301.73;115.63;;;;;;;22.62;53.26;93794.50;6155194;23;20027;-95
2022/07/06 06:59:18;;;;;;;331.13;126.60;;;;;;;22.69;52.93;93793.13;6217733;23;20076;-93
2022/07/06 07:01:46;;;;;;;234.77;120.38;;;;;;;22.70;53.13;93797.38;6142432;23;20021;-94
2022/07/06 07:04:14;;;;;;;274.33;125.82;;;;;;;22.65;52.80;93800.97;6105980;23;20032;-94
2022/07/06 07:06:40;;;;;;;227.73;115.68;;;;;;;22.72;52.94;93798.31;6094812;23;20021;-93
2022/07/06 07:09:05;;;;;;;231.45;115.25;;;;;;;22.71;52.79;93796.09;6126087;23;20021;-92
2022/07/06 07:11:33;;;;;;;211.73;115.28;;;;;;;22.78;52.76;93803.75;6109605;23;20092;-92
2022/07/06 07:14:16;;;;;;;209.48;109.45;;;;;;;22.77;52.64;93800.25;6122593;23;20021;-93
2022/07/06 07:16:46;;;;;;;230.45;115.07;;;;;;;22.77;52.66;93805.75;6116353;23;20101;-95
2022/07/06 07:19:33;;;;;;;209.93;105.45;;;;;;;22.80;52.74;93807.44;6120694;23;20029;-93
2022/07/06 07:22:33;;;;;;;174.43;97.85;;;;;;;22.80;52.64;93810.22;6130635;23;20056;-95
2022/07/06 07:25:00;;;;;;;171.53;94.80;;;;;;;22.84;52.52;93807.13;6167466;23;20048;-94
2022/07/06 07:30:13;;;;;;;175.68;91.03;;;;;;;22.86;52.36;93808.09;6217860;22;20039;-94
2022/07/06 07:32:47;;;;;;;177.77;94.82;;;;;;;22.83;52.61;93811.16;6149065;23;20024;-95
2022/07/06 07:35:22;;;;;;;220.13;99.10;;;;;;;22.86;52.54;93813.59;6176329;23;20028;-93
2022/07/06 07:40:22;;;;;;;216.68;97.00;;;;;;;22.87;52.56;93809.59;6174849;23;20021;-94
2022/07/06 07:42:47;;;;;;;192.20;90.03;;;;;;;22.89;52.40;93814.56;6129837;23;20026;-93
2022/07/06 07:45:15;;;;;;;187.43;86.07;;;;;;;22.92;52.46;93810.75;6127505;23;20070;-95
2022/07/06 07:47:42;;;;;;;169.45;88.00;;;;;;;22.91;52.55;93806.50;6170807;23;20032;-91
2022/07/06 07:50:16;;;;;;;202.20;103.50;;;;;;;22.91;52.62;93812.03;6214680;23;20017;-92
2022/07/06 07:55:10;;;;;;;256.90;124.18;;;;;;;22.93;52.59;93808.75;6210872;22;20036;-93
2022/07/06 07:57:43;;;;;;;245.32;118.25;;;;;;;22.92;52.04;93807.25;6114851;23;20077;-90
2022/07/06 08:00:12;;;;;;;258.58;137.40;;;;;;;22.93;52.23;93815.00;6049486;22;20024;-92
2022/07/06 08:02:50;;;;;;;257.27;138.10;;;;;;;22.94;52.04;93807.47;6125439;23;20028;-91
2022/07/06 08:05:23;;;;;;;252.45;148.88;;;;;;;22.99;52.02;93814.88;6103130;23;20080;-92
2022/07/06 08:07:49;;;;;;;242.90;134.43;;;;;;;22.97;51.84;93815.41;6181428;22;20012;-93
2022/07/06 08:10:19;;;;;;;239.63;142.75;;;;;;;22.99;51.84;93814.88;6175607;23;20126;-95
2022/07/06 08:12:44;;;;;;;260.93;149.40;;;;;;;22.99;51.72;93818.38;6161751;23;20016;-93
2022/07/06 08:15:10;;;;;;;259.42;146.55;;;;;;;23.00;52.11;93825.38;6163495;23;20308;-92
2022/07/06 08:17:39;;;;;;;270.48;153.75;;;;;;;23.02;51.89;93827.59;6145828;23;20057;-94
2022/07/06 08:20:06;;;;;;;263.08;159.82;;;;;;;23.05;51.93;93821.03;6066391;23;20022;-93
2022/07/06 08:22:35;;;;;;;276.48;154.57;;;;;;;23.03;51.81;93824.31;6080860;23;20022;-94
2022/07/06 08:25:01;;;;;;;325.70;220.52;;;;;;;23.10;51.83;93822.94;6038764;23;20015;-90
2022/07/06 08:27:32;;;;;;;286.30;148.05;;;;;;;23.09;51.71;93818.69;6031517;23;20022;-90
2022/07/06 08:30:00;;;;;;;272.40;151.10;;;;;;;23.05;51.87;93818.25;6062024;23;20023;-94
2022/07/06 08:32:25;;;;;;;270.95;147.27;;;;;;;23.07;52.00;93829.50;6019445;23;20019;-94
2022/07/06 08:34:51;;;;;;;298.70;160.65;;;;;;;23.10;51.68;93823.69;6048700;23;20037;-91
2022/07/06 08:37:18;;;;;;;268.20;146.10;;;;;;;23.13;51.58;93825.38;5992776;23;20073;-91
2022/07/06 08:40:07;;;;;;;287.35;143.05;;;;;;;23.06;51.55;93825.25;6017494;23;20356;-94
2022/07/06 08:42:54;;;;;;;261.25;145.13;;;;;;;23.06;51.48;93819.75;6139203;22;20028;-93
2022/07/06 08:45:20;;;;;;;281.85;144.88;;;;;;;23.08;51.42;93825.47;6130542;23;20479;-93
2022/07/06 08:47:52;;;;;;;290.83;154.38;;;;;;;23.08;51.17;93828.97;6137513;23;20027;-92
2022/07/06 08:50:45;;;;;;;286.80;144.82;;;;;;;23.08;51.44;93825.47;6156823;23;20088;-92
2022/07/06 08:53:14;;;;;;;346.58;148.52;;;;;;;23.09;51.19;93826.97;6144156;23;20019;-89
2022/07/06 08:55:40;;;;;;;381.52;156.05;;;;;;;23.10;51.43;93828.44;6144813;23;20021;-88
2022/07/06 08:58:07;;;;;;;388.52;156.07;;;;;;;23.12;51.35;93823.88;6149371;23;20041;-90
2022/07/06 09:03:36;;;;;;;316.48;143.55;;;;;;;23.10;51.67;93829.19;6196122;22;20017;-92
2022/07/06 09:06:02;;;;;;;300.17;144.93;;;;;;;23.16;51.34;93829.09;6166753;23;20124;-91
2022/07/06 09:08:27;;;;;;;281.77;144.82;;;;;;;23.17;51.48;93816.75;6154292;23;20472;-89
2022/07/06 09:10:57;;;;;;;305.55;146.82;;;;;;;23.16;51.36;93832.59;6174585;23;20024;-91
2022/07/06 09:13:23;;;;;;;280.85;145.20;;;;;;;23.18;51.34;93830.00;6103968;23;20049;-91
2022/07/06 09:15:50;;;;;;;267.42;138.65;;;;;;;23.19;51.50;93836.28;6130273;23;20032;-90
2022/07/06 09:18:15;;;;;;;268.00;136.13;;;;;;;23.16;51.28;93829.09;6107190;23;20057;-91
2022/07/06 09:23:11;;;;;;;246.60;133.75;;;;;;;23.21;51.33;93834.47;6236816;22;20028;-91
2022/07/06 09:25:39;;;;;;;264.30;134.27;;;;;;;23.21;51.47;93836.47;6199370;22;20719;-91
2022/07/06 09:28:06;;;;;;;306.45;151.75;;;;;;;23.25;51.10;93836.91;6197619;22;20138;-90
2022/07/06 09:30:32;;;;;;;321.45;157.65;;;;;;;23.26;51.39;93835.63;6229016;23;20013;-92
2022/07/06 09:32:58;;;;;;;297.58;153.15;;;;;;;23.27;51.21;93831.59;6172590;23;20023;-89
2022/07/06 09:35:35;;;;;;;252.13;140.73;;;;;;;23.26;51.54;93830.13;6223624;23;20020;-91
2022/07/06 09:38:11;;;;;;;288.70;147.88;;;;;;;23.27;51.52;93831.59;6237454;23;20017;-94
2022/07/06 09:40:51;;;;;;;254.48;145.95;;;;;;;23.32;51.36;93824.50;6199454;23;20029;-91
2022/07/06 09:43:25;;;;;;;287.23;163.57;;;;;;;23.36;51.27;93824.91;6218651;23;20017;-90
2022/07/06 09:45:57;;;;;;;298.17;171.35;;;;;;;23.42;50.90;93831.03;6189901;23;20060;-93
2022/07/06 09:51:49;;;;;;;295.25;165.45;;;;;;;23.42;51.01;93836.56;6168791;23;20057;-93
2022/07/06 09:54:40;;;;;;;273.48;164.05;;;;;;;23.36;51.03;93822.91;6188881;23;20096;-95
2022/07/06 09:57:15;;;;;;;284.17;161.27;;;;;;;23.40;51.12;93831.56;6195920;22;20039;-94
2022/07/06 09:59:50;;;;;;;255.05;147.73;;;;;;;23.40;51.12;93819.78;6160616;23;20117;-94
2022/07/06 10:03:24;;;;;;;276.90;144.52;;;;;;;23.37;51.21;93820.88;6170766;23;20119;-94
2022/07/06 10:05:47;;;;;;;269.40;143.40;;;;;;;23.37;50.71;93821.63;6131403;23;20020;-92
2022/07/06 10:08:55;;;;;;;238.32;128.63;;;;;;;23.32;49.40;93822.47;6164761;23;20021;-93
2022/07/06 10:11:27;;;;;;;225.90;127.50;;;;;;;23.31;49.52;93823.75;6056560;23;20087;-92
2022/07/06 10:13:55;;;;;;;249.48;127.32;;;;;;;23.32;49.84;93822.47;6155397;23;20032;-94
2022/07/06 10:16:37;;;;;;;230.57;131.70;;;;;;;23.31;49.57;93818.22;6124781;23;20021;-93
2022/07/06 10:19:06;;;;;;;198.20;120.25;;;;;;;23.30;49.55;93821.53;6099317;23;20025;-93
2022/07/06 10:31:10;;;;;;;183.70;105.07;;;;;;;23.30;49.83;93816.00;6234391;22;20027;-94
2022/07/06 10:33:45;;;;;;;175.32;100.72;;;;;;;23.30;49.53;93822.25;6135907;23;20016;-93
2022/07/06 10:36:13;;;;;;;158.23;98.32;;;;;;;23.34;49.09;93814.41;6204767;22;20024;-96
2022/07/06 10:41:09;;;;;;;152.52;94.43;;;;;;;23.37;49.51;93815.38;6232058;22;20020;-93
2022/07/06 10:43:44;;;;;;;143.00;86.80;;;;;;;23.39;48.87;93821.81;6161798;23;20340;-94
2022/07/06 10:48:51;;;;;;;134.15;81.28;;;;;;;23.32;49.00;93827.25;6197435;22;20027;-93
2022/07/06 10:54:08;;;;;;;59.00;36.47;;;;;;;23.27;44.72;93833.63;6172799;22;20025;-95
2022/07/06 10:56:50;;;;;;;50.55;32.17;;;;;;;23.21;44.16;93828.22;6162526;23;20025;-94
2022/07/06 11:08:24;;;;;;;20.77;13.73;;;;;;;23.04;41.46;93820.28;6072491;22;20026;-95
2022/07/06 11:11:41;;;;;;;;;;;;;;;;;;;;;
2022/07/06 11:14:53;;;;;;;;;;;;;;;;;;;;;
2022/07/06 11:17:19;;;;;;;47.05;15.20;;;;;;;22.96;39.54;93822.19;6157630;22;20046;-94
2022/07/06 11:20:19;;;;;;;49.80;19.23;;;;;;;22.82;39.75;93817.94;6156516;22;20024;-96
2022/07/06 11:23:15;;;;;;;;;;;;;;;;;;;;;
2022/07/06 11:25:45;;;;;;;75.60;37.30;;;;;;;22.84;39.66;93818.16;6107648;23;20633;-94
2022/07/06 11:32:19;;;;;;;43.15;18.70;;;;;;;22.83;39.69;93820.19;6075977;22;20017;-94
2022/07/06 11:34:45;;;;;;;46.92;17.48;;;;;;;22.82;39.78;93817.94;6200982;23;20024;-94
2022/07/06 11:37:17;;;;;;;46.97;17.10;;;;;;;22.80;39.96;93818.47;6170270;22;20016;-92
2022/07/06 11:39:58;;;;;;;40.55;16.40;;;;;;;22.78;39.87;93812.75;6141110;23;20017;-94
2022/07/06 11:43:24;;;;;;;36.60;14.55;;;;;;;22.85;39.73;93830.69;6072188;23;20080;-94
2022/07/06 11:45:58;;;;;;;47.83;14.60;;;;;;;22.84;39.43;93824.44;6134166;22;20072;-93
2022/07/06 11:54:49;;;;;;;39.15;14.38;;;;;;;22.86;39.51;93829.41;6187891;22;20412;-94
2022/07/06 11:57:21;;;;;;;42.67;13.30;;;;;;;22.84;39.50;93826.44;6191790;23;20048;-95
2022/07/06 11:59:48;;;;;;;;;;;;;;;22.83;39.53;93825.69;6080987;23;20022;-93
2022/07/06 12:02:15;;;;;;;28.08;11.95;;;;;;;22.79;39.35;93825.25;6121076;23;19936;-93
2022/07/06 12:04:42;;;;;;;21.90;9.50;;;;;;;22.74;39.28;93831.59;6057037;23;20026;-92
2022/07/06 12:07:20;;;;;;;33.30;18.13;;;;;;;22.74;39.69;93823.31;6057685;23;20030;-93
2022/07/06 12:09:46;;;;;;;32.60;18.38;;;;;;;22.72;39.45;93831.41;6054134;23;20022;-89
2022/07/06 12:12:12;;;;;;;32.30;17.48;;;;;;;22.67;39.83;93823.97;6049157;23;20559;-92
2022/07/06 12:14:40;;;;;;;16.85;7.95;;;;;;;22.73;39.62;93815.59;6096819;23;20033;-88
2022/07/06 12:17:23;;;;;;;42.38;15.13;;;;;;;22.75;41.08;93813.03;6090663;23;20030;-91
2022/07/06 12:19:54;;;;;;;53.13;21.05;;;;;;;22.72;39.60;93827.91;6119667;23;20750;-91
2022/07/06 12:22:26;;;;;;;19.90;13.00;;;;;;;22.69;40.59;93817.94;6094941;23;20026;-90
2022/07/06 12:24:52;;;;;;;29.30;15.77;;;;;;;22.53;42.39;93842.47;6097500;23;20454;-92
2022/07/06 12:27:18;;;;;;;27.65;15.50;;;;;;;22.55;44.67;93842.69;6089192;23;20028;-90
2022/07/06 12:29:46;;;;;;;34.38;16.20;;;;;;;22.41;46.90;93834.94;6086228;23;20033;-91
2022/07/06 12:32:19;;;;;;;43.72;25.48;;;;;;;22.32;46.60;93838.84;6102436;23;20029;-89
2022/07/06 12:34:47;;;;;;;46.88;25.48;;;;;;;22.44;46.16;93828.38;6122415;23;20032;-91
2022/07/06 12:37:13;;;;;;;18.05;9.57;;;;;;;22.48;47.12;93826.06;6125692;23;20022;-94